• Join FlightAware (Why Join?)
  • Login
  • US Flag 
09:31PM EDT


 

Airport Tracker/Info


-or-


 

Live Flight TrackerFlight Track Log ✈ EJA290 ✈ 07-Jul-2013 ✈ KFAT - KSBA

Flight Track Log - Related Links

Times and Time Zones

All times are in EDT time to prevent confusion due to time zone crossing. See the EJA290 flight status page for this flight to view local times or setup timezone preferences in your user account.

Time Position Orientation Groundspeed Altitude Reporting Facility
EDT Latitude Longitude Course Direction KTS MPH feet Rate Location/Type
01:53PM 36.7975 -119.7594 158° South 207 238 1,900  Level Oakland Center
01:54PM 36.7875 -119.8156 257° West 203 234 4,800 2,280 Climbing Oakland Center
01:55PM 36.7211 -119.8028 171° South 270 311 6,600 2,220 Climbing Oakland Center
01:56PM 36.6450 -119.8125 186° South 276 318 9,500 2,700 Climbing Oakland Center
01:57PM 36.5503 -119.8253 186° South 285 328 12,200 2,460 Climbing Oakland Center
01:58PM 36.1766 -119.4216 158° South  Level FlightAware Approximate
01:58PM 36.4653 -119.8367 186° South 305 351 14,600  Level Oakland Center
01:59PM 36.3703 -119.8489 186° South 350 403 15,000 180 Climbing Oakland Center
02:00PM 36.2622 -119.8622 186° South 389 448 15,000  Level Oakland Center
02:01PM 36.1472 -119.8767 186° South 411 473 15,000  Level Oakland Center
02:02PM 36.0303 -119.8917 186° South 419 482 15,000  Level Oakland Center
02:03PM 35.9161 -119.9106 188° South 413 475 15,000  Level Oakland Center
02:04PM 35.8000 -119.9261 186° South 415 478 15,000  Level Oakland Center
02:05PM 35.6619 -119.9442 186° South 414 476 15,000  Level Oakland Center
02:06PM 35.5706 -119.9575 187° South 414 476 15,000  Level Los Angeles Center
02:07PM 35.4539 -119.9728 186° South 415 478 15,000  Level Los Angeles Center
02:08PM 35.3147 -119.9911 186° South 415 478 15,000  Level Los Angeles Center
02:09PM 35.1994 -120.0067 186° South 414 476 15,000 -60 Level Los Angeles Center
02:10PM 35.0864 -120.0211 186° South 408 470 14,900 -660 Descending Los Angeles Center
02:11PM 34.9225 -120.0419 186° South 418 481 13,500 -1,320 Descending Los Angeles Center
02:12PM 34.8017 -120.0564 186° South 416 479 12,100 -1,440 Descending Los Angeles Center
02:13PM 34.7350 -120.0675 188° South 343 395 11,200 -1,320 Descending Los Angeles Center
02:14PM 34.6592 -120.0761 185° South 281 323 10,000 -1,500 Descending Los Angeles Center
02:15PM 34.6344 -120.0792 186° South 286 329 9,100 -660 Descending Los Angeles Center
02:16PM 34.5553 -120.0864 184° South 253 291 9,000 -1,020 Descending Los Angeles Center
02:17PM 34.4803 -120.0892 182° South 254 292 7,000 -1,800 Descending Los Angeles Center
02:17PM 34.4489 -120.0522 136° Southeast 269 310 6,300 -1,440 Descending Los Angeles Center
02:18PM 34.4325 -120.0236 125° Southeast 266 306 5,500 -1,980 Descending Los Angeles Center
02:18PM 34.3958 -119.9781 134° Southeast 262 302 4,100 -1,200 Descending Los Angeles Center
02:19PM 34.3578 -119.9228 130° Southeast 265 305 3,900 -180 Descending Los Angeles Center
02:20PM 34.3450 -119.8650 105° East 270 311 3,900 -720 Level Los Angeles Center
02:21PM 34.3594 -119.7811 78° East 262 302 2,700 -1,020 Descending Los Angeles Center
02:22PM 34.3956 -119.7611 25° Northeast 216 249 1,900 -960 Descending Los Angeles Center
02:23PM 34.4222 -119.7981 311° West 172 198 800 -900 Descending Los Angeles Center
02:24PM 34.4350 -119.8419 289° West 150 173 100 -720 Descending Los Angeles Center
02:26PM 34.4262 -119.8415 180° South  Level Estimated